Time;durP1;ratioP1;P1;durP2;ratioP2;P2;SDS_P1;SDS_P2;PMS_P1;PMS_P2;Temp;Humidity;BMP_temperature;BMP_pressure;BME280_temperature;BME280_humidity;BME280_pressure;Samples;Min_cycle;Max_cycle;Signal;HPM_P1;HPM_P2
2022/05/07 00:01:36;;;;;;;6.97;3.77;;;6.40;99.90;5.50;100888;;;;585875;241;24075;-76
2022/05/07 00:04:04;;;;;;;4.93;4.17;;;6.40;99.90;5.60;100885;;;;585553;241;24061;-76
2022/05/07 00:06:32;;;;;;;4.07;2.93;;;6.40;99.90;5.60;100888;;;;586339;241;24048;-76
2022/05/07 00:09:00;;;;;;;5.37;2.80;;;6.50;99.90;5.60;100892;;;;585339;241;24116;-75
2022/05/07 00:11:31;;;;;;;4.83;3.23;;;6.50;99.90;5.60;100886;;;;585868;241;24088;-76
2022/05/07 00:13:56;;;;;;;5.77;2.77;;;6.50;99.90;5.60;100891;;;;595843;241;24098;-77
2022/05/07 00:19:10;;;;;;;5.77;3.17;;;6.50;99.90;5.60;100886;;;;591532;241;25075;-75
2022/05/07 00:21:38;;;;;;;7.07;3.73;;;6.40;99.90;5.60;100890;;;;585743;241;24068;-75
2022/05/07 00:24:09;;;;;;;7.17;4.47;;;6.50;99.90;5.60;100881;;;;595858;241;24061;-77
2022/05/07 00:26:33;;;;;;;4.93;3.90;;;6.50;99.90;5.60;100886;;;;586283;241;24053;-75
2022/05/07 00:29:01;;;;;;;4.50;3.73;;;6.50;99.90;5.70;100884;;;;586499;241;24068;-78
2022/05/07 00:31:29;;;;;;;4.37;3.70;;;6.60;99.90;5.70;100883;;;;584211;241;24186;-74
2022/05/07 00:33:57;;;;;;;6.50;3.13;;;6.60;99.90;5.70;100880;;;;587829;240;24106;-80
2022/05/07 00:36:25;;;;;;;8.33;4.03;;;6.60;99.90;5.70;100881;;;;581415;245;24207;-76
2022/05/07 00:38:53;;;;;;;7.57;3.37;;;6.60;99.90;5.80;100876;;;;587251;240;24059;-76
2022/05/07 00:41:24;;;;;;;3.77;3.10;;;6.60;99.90;5.80;100878;;;;586992;240;24123;-79
2022/05/07 00:43:49;;;;;;;5.73;2.87;;;6.60;99.90;5.80;100873;;;;591940;240;24117;-75
2022/05/07 00:46:17;;;;;;;7.83;3.43;;;6.60;99.90;5.80;100878;;;;586811;240;24090;-78
2022/05/07 00:48:45;;;;;;;4.63;3.20;;;6.70;99.90;5.80;100874;;;;587568;240;24044;-75
2022/05/07 00:53:58;;;;;;;3.80;2.77;;;6.70;99.90;5.80;100874;;;;592461;240;24124;-80
2022/05/07 00:56:26;;;;;;;7.23;2.70;;;6.70;99.90;5.80;100865;;;;591850;240;24129;-81
2022/05/07 00:58:58;;;;;;;6.57;3.17;;;6.70;99.90;5.80;100870;;;;586473;240;24052;-79
2022/05/07 01:01:22;;;;;;;4.70;3.30;;;6.60;99.90;5.70;100872;;;;587122;240;24061;-82
2022/05/07 01:03:51;;;;;;;4.67;2.73;;;6.60;99.90;5.70;100864;;;;587245;240;24093;-80
2022/05/07 01:06:19;;;;;;;3.03;2.30;;;6.60;99.90;5.70;100863;;;;586845;240;24125;-80
2022/05/07 01:08:47;;;;;;;3.70;3.07;;;6.60;99.90;5.70;100864;;;;586829;241;24096;-76
2022/05/07 01:11:17;;;;;;;5.13;2.50;;;6.60;99.90;5.70;100857;;;;595745;241;24127;-79
2022/05/07 01:13:45;;;;;;;5.97;3.13;;;6.60;99.90;5.80;100852;;;;586983;241;24163;-79
2022/05/07 01:16:14;;;;;;;4.53;2.80;;;6.70;99.90;5.80;100853;;;;586913;241;24061;-81
2022/05/07 01:18:42;;;;;;;6.93;3.33;;;6.70;99.90;5.90;100859;;;;596038;241;24091;-82
2022/05/07 01:21:16;;;;;;;6.27;2.90;;;6.70;99.90;6.00;100858;;;;587288;241;24084;-78
2022/05/07 01:23:41;;;;;;;3.87;2.67;;;6.80;99.90;6.00;100856;;;;587054;241;24105;-80
2022/05/07 01:26:08;;;;;;;3.33;2.67;;;6.80;99.90;6.00;100851;;;;587200;241;24082;-79
2022/05/07 01:28:36;;;;;;;6.07;2.40;;;6.90;99.90;6.00;100855;;;;586722;241;24125;-79
2022/05/07 01:31:07;;;;;;;3.17;2.77;;;6.90;99.90;6.00;100844;;;;586927;241;24064;-76
2022/05/07 01:33:37;;;;;;;7.07;2.60;;;6.90;99.90;6.00;100847;;;;586402;241;24064;-75
2022/05/07 01:36:03;;;;;;;2.83;2.33;;;6.90;99.90;6.10;100836;;;;586993;241;24197;-76
2022/05/07 01:38:28;;;;;;;8.03;2.93;;;6.90;99.90;6.10;100839;;;;584920;241;24060;-76
2022/05/07 01:40:56;;;;;;;3.30;2.93;;;6.90;99.90;6.10;100839;;;;586396;241;24060;-75
2022/05/07 01:43:26;;;;;;;6.27;2.63;;;7.00;99.90;6.10;100839;;;;586332;240;24054;-76
2022/05/07 01:45:52;;;;;;;5.27;2.63;;;7.00;99.90;6.10;100846;;;;586556;240;24053;-75
2022/05/07 01:48:20;;;;;;;4.67;2.97;;;7.00;99.90;6.10;100845;;;;586389;240;24072;-75
2022/05/07 01:50:48;;;;;;;3.97;2.67;;;7.00;99.90;6.10;100844;;;;587048;240;24107;-75
2022/05/07 01:53:16;;;;;;;2.73;2.27;;;7.00;99.90;6.10;100835;;;;586090;240;24070;-76
2022/05/07 01:55:48;;;;;;;4.37;2.83;;;7.00;99.90;6.10;100846;;;;586812;240;25096;-75
2022/05/07 01:58:12;;;;;;;2.63;2.43;;;7.00;99.90;6.10;100838;;;;591390;240;24061;-74
2022/05/07 02:00:43;;;;;;;2.30;2.13;;;7.00;99.90;6.00;100834;;;;586050;240;24113;-75
2022/05/07 02:03:14;;;;;;;2.00;1.87;;;6.90;99.90;6.00;100826;;;;586642;240;24134;-76
2022/05/07 02:05:38;;;;;;;3.50;2.03;;;6.90;99.90;6.00;100831;;;;586360;240;24115;-74
2022/05/07 02:08:10;;;;;;;4.27;2.07;;;6.90;99.90;6.00;100833;;;;585592;240;24073;-75
2022/05/07 02:10:34;;;;;;;3.83;2.23;;;6.90;99.90;6.00;100825;;;;591088;240;24106;-75
2022/05/07 02:13:02;;;;;;;4.87;1.90;;;6.90;99.90;6.10;100830;;;;585736;240;24067;-76
2022/05/07 02:15:30;;;;;;;3.87;2.00;;;6.90;99.90;6.10;100823;;;;596271;240;24054;-76
2022/05/07 02:17:58;;;;;;;2.10;2.00;;;6.90;99.90;6.10;100820;;;;592084;238;24054;-75
2022/05/07 02:20:26;;;;;;;2.47;2.07;;;6.90;99.90;6.10;100823;;;;596105;241;24041;-75
2022/05/07 02:22:58;;;;;;;3.23;2.20;;;6.90;99.90;6.10;100823;;;;586005;241;24065;-75
2022/05/07 02:25:23;;;;;;;3.97;2.10;;;7.00;99.90;6.10;100829;;;;586607;241;24093;-76
2022/05/07 02:27:53;;;;;;;3.00;2.63;;;6.90;99.90;6.20;100835;;;;586802;240;24104;-75
2022/05/07 02:30:22;;;;;;;3.33;2.10;;;7.00;99.90;6.20;100829;;;;595425;241;24062;-75
2022/05/07 02:32:47;;;;;;;3.63;2.40;;;7.00;99.90;6.10;100825;;;;594536;241;24054;-76
2022/05/07 02:35:15;;;;;;;2.20;2.00;;;7.00;99.90;6.10;100827;;;;595726;241;24061;-75
2022/05/07 02:37:44;;;;;;;2.70;1.60;;;7.00;99.90;6.20;100833;;;;584120;242;24119;-74
2022/05/07 02:40:12;;;;;;;2.07;1.87;;;7.00;99.90;6.20;100833;;;;587092;241;24099;-77
2022/05/07 02:42:40;;;;;;;1.97;1.70;;;7.00;99.90;6.20;100828;;;;574641;241;24087;-78
2022/05/07 02:45:08;;;;;;;2.13;1.90;;;7.00;99.90;6.20;100831;;;;586391;241;24064;-76
2022/05/07 02:47:39;;;;;;;5.43;1.90;;;7.00;99.90;6.20;100831;;;;586606;241;24098;-77
2022/05/07 02:50:08;;;;;;;1.87;1.73;;;7.10;99.90;6.30;100833;;;;586541;241;24056;-77
2022/05/07 02:52:36;;;;;;;2.60;2.00;;;7.10;99.90;6.30;100827;;;;586179;241;24093;-79
2022/05/07 02:55:04;;;;;;;2.93;2.27;;;7.10;99.90;6.30;100834;;;;587735;240;24061;-79
2022/05/07 02:57:32;;;;;;;5.23;1.90;;;7.20;99.90;6.40;100819;;;;588067;240;24082;-75
2022/05/07 03:00:02;;;;;;;3.10;2.10;;;7.20;99.90;6.50;100830;;;;587880;240;24067;-77
2022/05/07 03:02:27;;;;;;;2.47;2.20;;;7.30;99.90;6.50;100833;;;;587320;240;24059;-76
2022/05/07 03:04:55;;;;;;;3.07;2.47;;;7.40;99.90;6.70;100837;;;;587447;240;24072;-78
2022/05/07 03:07:23;;;;;;;2.37;2.17;;;7.50;99.90;6.80;100837;;;;587368;240;24095;-77
2022/05/07 03:09:51;;;;;;;2.17;1.90;;;7.60;99.90;6.90;100845;;;;586535;240;24080;-75
2022/05/07 03:12:20;;;;;;;4.83;2.07;;;7.90;99.90;7.10;100843;;;;586508;240;24115;-76
2022/05/07 03:14:48;;;;;;;2.50;2.30;;;7.80;99.90;7.20;100832;;;;587062;240;25123;-77
2022/05/07 03:17:17;;;;;;;2.07;1.90;;;8.00;99.90;7.30;100845;;;;585943;240;24073;-76
2022/05/07 03:19:44;;;;;;;1.90;1.80;;;8.10;99.90;7.40;100843;;;;585929;240;24085;-79
2022/05/07 03:22:11;;;;;;;1.70;1.60;;;8.30;99.90;7.60;100855;;;;586139;240;24065;-78
2022/05/07 03:24:41;;;;;;;2.40;2.20;;;8.50;99.90;7.70;100852;;;;586007;240;24056;-77
2022/05/07 03:27:11;;;;;;;4.17;2.47;;;8.50;99.90;7.80;100849;;;;587032;240;24073;-76
2022/05/07 03:29:36;;;;;;;1.67;1.57;;;8.60;99.90;7.90;100846;;;;586723;240;24083;-77
2022/05/07 03:32:08;;;;;;;5.23;1.90;;;8.80;99.90;8.10;100847;;;;586185;241;24085;-77
2022/05/07 03:34:32;;;;;;;2.40;2.20;;;8.90;99.90;8.20;100844;;;;586462;241;24058;-76
2022/05/07 03:37:00;;;;;;;2.20;1.97;;;9.00;99.90;8.30;100836;;;;586110;241;24053;-76
2022/05/07 03:39:30;;;;;;;2.13;1.87;;;9.10;99.90;8.40;100839;;;;586049;241;24076;-77
2022/05/07 03:41:56;;;;;;;3.53;2.00;;;9.20;99.90;8.50;100847;;;;585915;241;24075;-76
2022/05/07 03:44:23;;;;;;;2.70;1.90;;;9.30;99.90;8.60;100844;;;;586044;241;24110;-76
2022/05/07 03:46:51;;;;;;;3.07;1.80;;;9.40;99.90;8.70;100837;;;;586990;241;24100;-77
2022/05/07 03:49:19;;;;;;;5.07;2.90;;;9.50;99.90;8.80;100834;;;;586812;241;24077;-76
2022/05/07 03:54:33;;;;;;;4.37;2.50;;;9.70;99.90;9.00;100845;;;;591850;241;24061;-76
2022/05/07 03:57:04;;;;;;;2.50;2.40;;;9.80;99.90;9.10;100831;;;;586065;241;24053;-76
2022/05/07 03:59:29;;;;;;;3.53;1.80;;;9.90;99.90;9.20;100830;;;;586412;241;24093;-76
2022/05/07 04:02:01;;;;;;;3.10;2.00;;;10.10;99.90;9.30;100835;;;;586028;241;24053;-76
2022/05/07 04:04:32;;;;;;;5.13;2.67;;;10.10;99.90;9.40;100835;;;;586896;241;24159;-75
2022/05/07 04:06:56;;;;;;;2.70;2.50;;;10.20;99.90;9.50;100838;;;;587091;240;24091;-77
2022/05/07 04:09:24;;;;;;;4.53;2.27;;;10.30;99.90;9.60;100827;;;;592703;240;24093;-77
2022/05/07 04:11:53;;;;;;;2.50;2.20;;;10.60;99.90;9.70;100833;;;;586478;240;24075;-75
2022/05/07 04:14:22;;;;;;;2.10;1.80;;;10.70;99.90;9.90;100827;;;;586457;240;24056;-76
2022/05/07 04:16:49;;;;;;;3.70;2.50;;;10.60;99.90;9.90;100828;;;;586898;240;24061;-76
2022/05/07 04:19:18;;;;;;;3.13;2.47;;;10.90;99.90;10.00;100821;;;;586498;240;24091;-77
2022/05/07 04:21:46;;;;;;;3.03;2.20;;;10.80;99.90;10.10;100823;;;;586788;240;24059;-76
2022/05/07 04:24:14;;;;;;;2.30;2.07;;;11.00;99.90;10.20;100819;;;;586643;240;24119;-75
2022/05/07 04:26:43;;;;;;;3.83;2.40;;;11.10;99.90;10.30;100821;;;;586460;240;25102;-75
2022/05/07 04:29:16;;;;;;;2.93;2.30;;;11.20;99.90;10.30;100811;;;;586871;240;24087;-76
2022/05/07 04:31:39;;;;;;;3.80;2.83;;;11.10;99.90;10.40;100821;;;;581669;240;35118;-78
2022/05/07 04:34:11;;;;;;;3.80;2.30;;;11.20;99.90;10.40;100825;;;;586517;240;24063;-79
2022/05/07 04:36:35;;;;;;;4.73;2.30;;;11.30;99.90;10.50;100817;;;;586382;240;24168;-75
2022/05/07 04:39:07;;;;;;;3.23;2.03;;;11.30;99.90;10.60;100816;;;;586353;240;24061;-77
2022/05/07 04:41:31;;;;;;;4.07;2.13;;;11.40;99.90;10.70;100825;;;;595442;240;24063;-77
2022/05/07 04:44:01;;;;;;;3.27;2.00;;;11.50;99.90;10.70;100816;;;;585919;241;24064;-76
2022/05/07 04:46:28;;;;;;;2.07;1.87;;;11.60;99.90;10.80;100820;;;;585811;241;24086;-77
2022/05/07 04:48:56;;;;;;;3.43;2.33;;;11.50;99.90;10.80;100826;;;;586524;241;24065;-75
2022/05/07 04:51:24;;;;;;;3.03;2.33;;;11.60;99.90;10.90;100830;;;;586350;241;24061;-76
2022/05/07 04:53:51;;;;;;;2.07;1.90;;;11.70;99.90;11.10;100823;;;;586256;241;24113;-76
2022/05/07 04:56:22;;;;;;;3.00;2.17;;;11.80;99.90;11.20;100827;;;;586203;241;24044;-76
2022/05/07 04:58:47;;;;;;;2.27;2.03;;;11.90;99.90;11.30;100827;;;;586060;241;24050;-78
2022/05/07 05:01:15;;;;;;;7.67;2.80;;;12.10;99.90;11.40;100824;;;;586366;241;24061;-75
2022/05/07 05:03:43;;;;;;;2.57;2.30;;;12.20;99.90;11.60;100835;;;;586166;241;24033;-76
2022/05/07 05:06:11;;;;;;;4.40;2.40;;;12.30;99.90;11.70;100821;;;;586223;241;24039;-76
2022/05/07 05:08:39;;;;;;;6.50;2.30;;;12.50;99.90;11.90;100823;;;;586211;241;24051;-76
2022/05/07 05:11:08;;;;;;;7.40;2.80;;;12.70;99.90;12.00;100821;;;;586133;241;24079;-76
2022/05/07 05:13:36;;;;;;;5.03;2.17;;;12.90;99.90;12.20;100822;;;;586082;241;24049;-77
2022/05/07 05:16:04;;;;;;;4.30;2.53;;;12.90;99.90;12.40;100823;;;;586147;241;24041;-76
2022/05/07 05:18:32;;;;;;;2.47;2.27;;;13.10;99.90;12.80;100821;;;;587129;240;24032;-75
2022/05/07 05:21:00;;;;;;;5.23;2.40;;;13.50;99.90;13.20;100824;;;;587083;240;24140;-81
2022/05/07 05:23:28;;;;;;;2.87;2.00;;;13.80;99.90;13.60;100819;;;;587089;240;24155;-79
2022/05/07 05:25:56;;;;;;;2.70;1.87;;;14.20;99.90;14.10;100830;;;;587165;240;24039;-78
2022/05/07 05:28:24;;;;;;;2.03;1.77;;;14.70;99.90;14.80;100824;;;;597624;236;24071;-77
2022/05/07 05:30:55;;;;;;;2.20;2.10;;;15.30;99.90;15.20;100827;;;;586952;240;24095;-74
2022/05/07 05:33:23;;;;;;;3.23;2.20;;;15.80;99.90;16.00;100834;;;;587842;240;24055;-76
2022/05/07 05:35:51;;;;;;;3.20;2.00;;;16.40;99.90;17.50;100827;;;;587530;240;24121;-73
2022/05/07 05:38:16;;;;;;;4.50;2.80;;;17.70;99.90;19.50;100845;;;;587199;240;24087;-76
2022/05/07 05:40:44;;;;;;;3.93;2.20;;;19.60;99.90;20.10;100836;;;;587469;240;23073;-75
2022/05/07 05:43:12;;;;;;;2.00;1.90;;;20.60;99.90;20.00;100836;;;;587537;240;23072;-75
2022/05/07 05:45:39;;;;;;;1.97;1.80;;;20.80;97.50;19.60;100834;;;;587646;240;24069;-77
2022/05/07 05:48:12;;;;;;;2.43;1.80;;;20.30;94.60;19.40;100832;;;;586810;240;24145;-80
2022/05/07 05:50:38;;;;;;;5.80;2.17;;;20.30;94.60;19.10;100838;;;;595695;240;24124;-80
2022/05/07 05:53:04;;;;;;;1.87;1.70;;;20.00;94.30;18.70;100828;;;;586271;240;24051;-80
2022/05/07 05:55:32;;;;;;;2.23;1.70;;;19.70;94.10;18.50;100827;;;;586873;241;24150;-82
2022/05/07 05:58:00;;;;;;;3.40;1.70;;;19.30;94.40;18.40;100837;;;;586617;241;24066;-79
2022/05/07 06:00:28;;;;;;;5.00;2.30;;;19.20;94.50;18.30;100828;;;;586340;241;24075;-79
2022/05/07 06:02:56;;;;;;;6.50;2.20;;;19.00;94.70;18.20;100830;;;;586112;241;24033;-80
2022/05/07 06:05:24;;;;;;;4.27;2.20;;;18.90;94.10;18.10;100830;;;;586539;241;24120;-77
2022/05/07 06:07:52;;;;;;;3.40;1.90;;;18.80;94.20;18.10;100838;;;;586019;241;24062;-75
2022/05/07 06:10:21;;;;;;;2.10;2.00;;;18.80;94.30;18.20;100844;;;;585986;241;24082;-79
2022/05/07 06:12:49;;;;;;;2.03;1.70;;;18.80;94.40;18.30;100838;;;;586292;236;24096;-79
2022/05/07 06:15:17;;;;;;;2.90;2.20;;;18.80;94.40;18.40;100844;;;;586184;241;24067;-77
2022/05/07 06:17:45;;;;;;;3.80;2.07;;;19.00;94.20;18.50;100834;;;;586444;241;24041;-80
2022/05/07 06:20:13;;;;;;;4.87;2.40;;;19.10;93.60;18.40;100843;;;;586319;241;24158;-78
2022/05/07 06:22:41;;;;;;;4.77;2.30;;;19.10;93.50;18.30;100844;;;;586351;241;24095;-79
2022/05/07 06:27:56;;;;;;;3.47;2.50;;;18.90;93.60;18.30;100838;;;;587261;241;24056;-79
2022/05/07 06:30:24;;;;;;;3.43;2.43;;;18.90;93.90;18.30;100847;;;;587651;240;23064;-79
2022/05/07 06:32:51;;;;;;;2.67;2.43;;;18.90;93.80;18.30;100839;;;;587534;240;24053;-80
2022/05/07 06:35:19;;;;;;;5.53;2.30;;;18.90;93.70;18.30;100835;;;;587808;240;24064;-80
2022/05/07 06:37:48;;;;;;;2.73;2.17;;;18.90;94.00;18.30;100838;;;;587877;240;24040;-78
2022/05/07 06:40:15;;;;;;;5.43;2.50;;;18.90;93.80;18.10;100847;;;;587627;240;24163;-80
2022/05/07 06:42:44;;;;;;;9.10;2.87;;;18.80;93.50;18.00;100851;;;;587921;240;24038;-78
2022/05/07 06:45:12;;;;;;;5.20;2.60;;;18.70;94.10;18.10;100851;;;;587721;240;24077;-79
2022/05/07 06:47:40;;;;;;;7.23;2.93;;;18.90;94.00;18.40;100844;;;;587127;240;24045;-78
2022/05/07 06:50:08;;;;;;;4.33;2.63;;;18.90;94.00;18.60;100848;;;;586680;240;24100;-76
2022/05/07 06:52:45;;;;;;;4.47;2.77;;;19.20;93.40;18.70;100851;;;;587052;240;24064;-78
2022/05/07 06:55:16;;;;;;;2.67;2.30;;;19.30;93.00;18.70;100846;;;;587668;240;25106;-76
2022/05/07 06:57:44;;;;;;;6.03;2.67;;;19.30;93.00;18.70;100851;;;;587551;240;24048;-80
2022/05/07 07:00:10;;;;;;;3.63;2.63;;;19.30;93.40;18.70;100852;;;;587594;240;24104;-80
2022/05/07 07:02:37;;;;;;;3.27;2.80;;;19.30;93.40;18.80;100854;;;;587667;240;24037;-81
2022/05/07 07:05:05;;;;;;;3.77;2.33;;;19.40;93.40;18.80;100855;;;;587613;241;24059;-77
2022/05/07 07:07:32;;;;;;;6.47;2.57;;;19.40;93.10;18.80;100860;;;;594961;241;23058;-80
2022/05/07 07:10:00;;;;;;;2.77;2.40;;;19.50;93.10;18.80;100853;;;;587069;241;23076;-82
2022/05/07 07:12:29;;;;;;;4.00;2.30;;;19.40;93.00;18.60;100858;;;;587048;241;24069;-80
2022/05/07 07:14:57;;;;;;;2.67;2.47;;;19.30;93.10;18.50;100856;;;;586792;241;23146;-79
2022/05/07 07:17:27;;;;;;;5.30;2.43;;;19.20;93.20;18.20;100860;;;;586986;241;24052;-80
2022/05/07 07:19:52;;;;;;;2.90;2.60;;;18.90;93.30;18.00;100857;;;;586665;241;24063;-77
2022/05/07 07:22:20;;;;;;;2.47;2.37;;;18.70;93.80;17.80;100853;;;;587109;241;24037;-77
2022/05/07 07:24:48;;;;;;;5.87;2.70;;;18.50;94.30;17.70;100856;;;;586795;241;24066;-80
2022/05/07 07:27:16;;;;;;;3.07;2.43;;;18.30;94.70;17.70;100853;;;;587164;241;24046;-79
2022/05/07 07:29:47;;;;;;;3.87;2.10;;;18.20;95.30;17.60;100850;;;;586934;241;24038;-80
2022/05/07 07:32:13;;;;;;;2.50;2.30;;;18.20;95.30;17.50;100850;;;;586902;241;24068;-78
2022/05/07 07:34:41;;;;;;;2.93;2.60;;;18.10;95.80;17.40;100847;;;;586483;241;24034;-82
2022/05/07 07:37:09;;;;;;;3.70;2.70;;;18.00;96.00;17.40;100854;;;;586209;241;24038;-79
2022/05/07 07:39:36;;;;;;;3.00;2.70;;;18.00;96.50;17.50;100850;;;;586200;241;24041;-76
2022/05/07 07:42:04;;;;;;;2.77;2.67;;;18.00;96.90;17.50;100851;;;;587427;236;24047;-82
2022/05/07 07:44:32;;;;;;;3.17;2.40;;;18.10;97.00;17.70;100848;;;;587964;240;24049;-80
2022/05/07 07:49:47;;;;;;;3.23;2.60;;;18.50;96.20;18.00;100855;;;;587208;240;24071;-76
2022/05/07 07:52:16;;;;;;;3.87;2.77;;;18.50;96.20;18.10;100851;;;;586344;240;24094;-81
2022/05/07 07:54:43;;;;;;;2.67;2.23;;;18.70;95.90;18.30;100850;;;;586423;240;24130;-76
2022/05/07 07:57:11;;;;;;;2.93;2.37;;;18.90;95.40;18.40;100847;;;;586242;240;24081;-77
2022/05/07 07:59:39;;;;;;;3.27;2.30;;;18.90;94.70;18.30;100847;;;;585937;240;24093;-81
2022/05/07 08:02:07;;;;;;;2.67;2.30;;;18.90;94.40;18.30;100852;;;;585940;240;24108;-81
2022/05/07 08:04:36;;;;;;;3.03;2.70;;;18.80;94.30;18.20;100846;;;;585897;240;24050;-79
2022/05/07 08:12:37;;;;;;;2.67;2.33;;;18.60;94.30;17.70;100851;;;;586499;240;24082;-79
2022/05/07 08:15:05;;;;;;;2.63;2.27;;;18.30;94.50;17.60;100838;;;;586085;240;24053;-81
2022/05/07 08:17:34;;;;;;;3.50;2.17;;;18.20;95.00;17.60;100839;;;;586251;241;24088;-83
2022/05/07 08:20:02;;;;;;;2.87;2.50;;;18.30;95.00;17.90;100843;;;;585609;241;24069;-81
2022/05/07 08:22:30;;;;;;;21.23;3.07;;;18.40;95.30;18.10;100850;;;;585779;241;24079;-79
2022/05/07 08:25:01;;;;;;;6.23;2.43;;;18.60;95.10;18.60;100847;;;;585641;241;24052;-81
2022/05/07 08:27:26;;;;;;;2.67;2.47;;;19.00;94.30;19.20;100844;;;;585491;241;24099;-85
2022/05/07 08:29:57;;;;;;;2.97;2.60;;;20.30;92.20;19.80;100844;;;;585810;241;23097;-82
2022/05/07 08:32:25;;;;;;;3.97;2.53;;;20.20;92.20;20.20;100844;;;;586095;241;24051;-78
2022/05/07 08:34:53;;;;;;;2.70;2.60;;;20.70;91.90;20.40;100839;;;;586104;241;23088;-81
2022/05/07 08:37:21;;;;;;;2.43;2.23;;;20.90;90.30;20.60;100846;;;;586069;241;24082;-82
2022/05/07 08:39:49;;;;;;;3.77;2.10;;;21.10;90.10;21.20;100851;;;;586126;241;24058;-83
2022/05/07 08:42:20;;;;;;;2.43;2.23;;;21.70;89.10;23.10;100843;;;;586112;241;24039;-80
2022/05/07 08:44:45;;;;;;;3.53;2.50;;;23.20;85.00;25.30;100845;;;;586395;241;24101;-82
2022/05/07 08:47:13;;;;;;;3.43;2.40;;;25.40;77.90;26.60;100853;;;;586015;241;23092;-76
2022/05/07 08:49:41;;;;;;;2.50;2.30;;;27.00;69.60;27.80;100854;;;;585770;241;24062;-83
2022/05/07 08:52:11;;;;;;;2.47;2.23;;;29.20;59.00;28.50;100854;;;;585826;239;23066;-82
2022/05/07 08:54:41;;;;;;;8.53;2.70;;;29.30;56.00;28.40;100848;;;;587034;240;24082;-77
2022/05/07 08:57:06;;;;;;;4.95;2.75;;;29.20;55.90;28.00;100846;;;;586987;240;24057;-76
2022/05/07 08:59:34;;;;;;;5.05;2.60;;;29.00;55.10;27.40;100851;;;;586503;240;24101;-77
2022/05/07 09:02:03;;;;;;;2.50;2.40;;;28.50;55.20;26.90;100850;;;;586461;240;23108;-76
2022/05/07 09:04:30;;;;;;;2.97;2.63;;;27.90;55.90;26.90;100854;;;;586300;240;23074;-82
2022/05/07 09:06:58;;;;;;;2.90;2.70;;;27.60;56.80;27.50;100851;;;;586289;240;23070;-84
2022/05/07 09:09:27;;;;;;;2.90;2.60;;;28.00;56.00;28.10;100853;;;;586411;240;24068;-84
2022/05/07 09:11:53;;;;;;;4.20;2.58;;;28.60;54.80;28.80;100851;;;;586368;240;24060;-86
2022/05/07 09:14:21;;;;;;;5.22;2.80;;;29.20;54.00;29.40;100849;;;;586587;240;23155;-80
2022/05/07 09:16:50;;;;;;;2.90;2.67;;;29.80;52.50;31.10;100852;;;;585700;240;24112;-78
2022/05/07 09:19:27;;;;;;;2.40;2.30;;;33.50;48.60;33.40;100853;;;;586198;240;23095;-77
2022/05/07 09:21:54;;;;;;;2.65;2.45;;;33.40;48.50;35.40;100858;;;;586379;240;24100;-83
2022/05/07 09:24:21;;;;;;;4.87;2.97;;;35.70;44.90;36.80;100851;;;;583853;245;23099;-86
2022/05/07 09:26:47;;;;;;;2.78;2.58;;;37.20;42.40;38.20;100853;;;;575371;245;24142;-84
2022/05/07 09:29:19;;;;;;;5.32;2.92;;;38.80;40.70;39.40;100851;;;;583592;246;23084;-79
2022/05/07 09:31:44;;;;;;;6.62;3.20;;;40.20;38.10;38.30;100860;;;;574536;245;23143;-86
2022/05/07 09:37:03;;;;;;;3.65;3.28;;;38.80;37.60;35.80;100847;;;;587023;241;23055;-84
2022/05/07 09:39:31;;;;;;;3.97;3.20;;;37.70;38.50;35.20;100856;;;;586375;241;23090;-80
2022/05/07 09:42:00;;;;;;;3.10;2.90;;;36.80;39.40;34.90;100851;;;;586628;241;23093;-86
2022/05/07 09:44:30;;;;;;;4.57;3.35;;;36.30;40.10;35.50;100851;;;;586397;241;23066;-80
2022/05/07 09:46:59;;;;;;;3.35;2.83;;;37.50;39.50;36.80;100848;;;;596073;237;23074;-84
2022/05/07 09:49:27;;;;;;;6.60;3.37;;;37.50;39.50;37.90;100848;;;;586524;240;23121;-83
2022/05/07 09:51:52;;;;;;;5.85;3.20;;;38.80;38.10;38.50;100858;;;;585292;241;23140;-78
2022/05/07 09:59:52;;;;;;;2.97;2.78;;;41.50;35.10;39.30;100848;;;;585985;241;23044;-78
2022/05/07 10:02:28;;;;;;;2.67;2.50;;;41.00;35.20;39.50;100845;;;;585593;241;24097;-82
2022/05/07 10:05:08;;;;;;;2.97;2.78;;;41.40;34.70;39.90;100837;;;;586431;240;23062;-82
2022/05/07 10:07:52;;;;;;;2.85;2.67;;;41.30;34.60;37.90;100846;;;;587168;240;23063;-83
2022/05/07 10:10:29;;;;;;;3.25;2.55;;;40.00;35.10;35.90;100844;;;;595144;240;23073;-81
2022/05/07 10:12:56;;;;;;;3.08;2.80;;;37.90;36.80;34.10;100844;;;;586738;240;23073;-81
2022/05/07 10:15:25;;;;;;;3.65;2.87;;;34.10;40.20;32.30;100837;;;;586081;240;23105;-81
2022/05/07 10:18:02;;;;;;;3.87;3.58;;;33.90;40.10;30.90;100838;;;;595783;240;23070;-81
2022/05/07 10:20:42;;;;;;;3.37;2.67;;;32.30;42.50;30.00;100835;;;;586533;240;23091;-77
2022/05/07 10:23:10;;;;;;;2.55;2.45;;;31.00;44.30;29.10;100832;;;;586598;240;23166;-79
2022/05/07 10:25:42;;;;;;;3.45;2.20;;;29.00;46.70;28.20;100827;;;;586012;240;24167;-77
2022/05/07 10:28:15;;;;;;;2.78;2.58;;;28.90;46.60;27.30;100827;;;;586566;240;23130;-82
2022/05/07 10:30:51;;;;;;;3.72;2.15;;;28.10;48.00;26.10;100836;;;;595856;240;24075;-77
2022/05/07 10:33:19;;;;;;;6.03;2.27;;;27.00;48.80;24.90;100829;;;;586486;240;24190;-78
2022/05/07 10:35:52;;;;;;;4.83;2.50;;;25.80;50.70;23.80;100825;;;;596499;240;24059;-85
2022/05/07 10:38:31;;;;;;;2.37;2.27;;;24.80;52.90;22.90;100819;;;;586691;240;24117;-86
2022/05/07 10:41:01;;;;;;;2.50;2.30;;;23.00;56.50;22.40;100821;;;;586605;241;23072;-86
2022/05/07 10:43:38;;;;;;;2.50;2.30;;;22.70;58.50;22.20;100816;;;;586347;241;24090;-83
2022/05/07 10:46:16;;;;;;;2.87;2.30;;;22.60;57.80;22.20;100825;;;;586557;241;24052;-84
2022/05/07 10:49:00;;;;;;;3.23;2.33;;;22.60;58.60;22.60;100820;;;;586259;241;24055;-77
2022/05/07 10:51:38;;;;;;;2.43;2.23;;;23.30;58.70;22.90;100818;;;;585922;241;24108;-79
2022/05/07 10:54:16;;;;;;;5.37;2.60;;;23.30;58.70;23.10;100815;;;;586141;241;24054;-80
2022/05/07 10:56:47;;;;;;;3.83;2.57;;;23.50;58.30;22.90;100818;;;;585895;241;24081;-77
2022/05/07 10:59:15;;;;;;;4.13;2.10;;;23.40;57.90;22.60;100809;;;;585910;241;24066;-78
2022/05/07 11:01:43;;;;;;;2.20;2.10;;;23.20;57.90;22.40;100809;;;;585940;241;24065;-76
2022/05/07 11:04:12;;;;;;;6.60;2.27;;;22.90;58.60;22.30;100813;;;;585883;241;24054;-77
2022/05/07 11:06:44;;;;;;;5.27;2.43;;;22.80;58.90;22.30;100815;;;;585699;241;24092;-80
2022/05/07 11:09:20;;;;;;;3.87;2.43;;;22.90;59.10;22.50;100814;;;;585853;241;24116;-80
2022/05/07 11:11:47;;;;;;;3.90;2.37;;;22.90;59.10;22.70;100801;;;;586107;241;24206;-76
2022/05/07 11:14:26;;;;;;;10.63;2.77;;;23.10;58.60;23.00;100797;;;;585917;241;23120;-75
2022/05/07 11:16:55;;;;;;;9.50;2.47;;;23.40;58.40;23.30;100802;;;;595778;239;24075;-78
2022/05/07 11:19:33;;;;;;;2.53;2.30;;;23.70;57.80;23.30;100802;;;;596664;240;24054;-74
2022/05/07 11:22:08;;;;;;;3.37;2.73;;;23.80;57.30;23.40;100807;;;;587148;240;24037;-77
2022/05/07 11:24:32;;;;;;;3.30;2.27;;;23.90;57.80;23.20;100801;;;;586980;240;24054;-76
2022/05/07 11:27:03;;;;;;;5.63;2.10;;;23.90;57.40;23.10;100804;;;;586871;240;24055;-75
2022/05/07 11:29:32;;;;;;;5.30;2.90;;;23.60;57.80;23.10;100802;;;;596029;240;24075;-78
2022/05/07 11:32:07;;;;;;;2.67;2.47;;;23.60;57.80;23.00;100807;;;;585942;240;24070;-75
2022/05/07 11:34:40;;;;;;;4.90;2.33;;;23.50;57.80;22.80;100805;;;;595464;240;24043;-76
2022/05/07 11:37:20;;;;;;;2.10;2.00;;;23.40;58.90;22.70;100802;;;;586429;240;24155;-81
2022/05/07 11:39:57;;;;;;;3.70;3.03;;;23.00;59.00;22.50;100803;;;;585806;240;24101;-76
2022/05/07 11:42:44;;;;;;;5.77;2.70;;;23.00;59.00;22.40;100796;;;;586661;240;24084;-76
2022/05/07 11:45:27;;;;;;;5.13;2.40;;;23.00;59.70;22.60;100794;;;;585875;240;24067;-75
2022/05/07 11:47:58;;;;;;;2.37;2.17;;;23.10;59.60;23.00;100796;;;;586048;240;24109;-77
2022/05/07 11:50:22;;;;;;;5.87;2.50;;;23.40;59.30;23.20;100790;;;;585973;240;24145;-75